Time;durP1;ratioP1;P1;durP2;ratioP2;P2;SDS_P1;SDS_P2;PMS_P1;PMS_P2;Temp;Humidity;BMP_temperature;BMP_pressure;BME280_temperature;BME280_humidity;BME280_pressure;Samples;Min_cycle;Max_cycle;Signal;HPM_P1;HPM_P2
2024/02/07 00:04:08;;;;;;;11.18;8.43;;;;;;;4.47;100.00;99732.94;10117222;28;20038;-76
2024/02/07 00:09:06;;;;;;;16.92;9.82;;;;;;;4.52;100.00;99730.13;10100116;28;20731;-76
2024/02/07 00:14:02;;;;;;;19.70;9.07;;;;;;;4.56;100.00;99725.72;10109124;28;20106;-74
2024/02/07 00:18:59;;;;;;;11.95;8.50;;;;;;;4.54;100.00;99733.34;10102944;28;20047;-74
2024/02/07 00:23:56;;;;;;;12.95;9.75;;;;;;;4.54;100.00;99733.34;10105427;28;20565;-74
2024/02/07 00:28:53;;;;;;;13.32;8.52;;;;;;;4.56;100.00;99733.84;10108946;28;20419;-76
2024/02/07 00:33:49;;;;;;;9.52;8.50;;;;;;;4.54;100.00;99719.78;10106384;28;20507;-75
2024/02/07 00:38:46;;;;;;;10.30;8.60;;;;;;;4.57;100.00;99730.84;10107983;28;20043;-75
2024/02/07 00:43:42;;;;;;;14.23;8.13;;;;;;;4.55;100.00;99735.75;10098422;28;20049;-76
2024/02/07 00:48:40;;;;;;;11.55;8.10;;;;;;;4.57;100.00;99735.44;10109098;28;20055;-75
2024/02/07 00:53:37;;;;;;;12.25;9.13;;;;;;;4.58;100.00;99712.69;10098651;28;20094;-76
2024/02/07 00:58:34;;;;;;;14.88;7.55;;;;;;;4.59;100.00;99714.28;10103205;28;20055;-76
2024/02/07 01:03:31;;;;;;;8.43;7.53;;;;;;;4.58;100.00;99718.09;10107953;28;20046;-76
2024/02/07 01:08:28;;;;;;;17.67;8.05;;;;;;;4.56;100.00;99714.88;10101762;28;20077;-77
2024/02/07 01:13:25;;;;;;;15.65;7.80;;;;;;;4.58;100.00;99718.09;10096906;28;20502;-76
2024/02/07 01:18:21;;;;;;;15.80;8.80;;;;;;;4.58;100.00;99718.09;10105980;28;20046;-76
2024/02/07 01:23:18;;;;;;;15.73;8.15;;;;;;;4.54;100.00;99711.69;10109392;28;20049;-77
2024/02/07 01:28:15;;;;;;;17.45;7.72;;;;;;;4.54;100.00;99717.09;10103409;28;20055;-73
2024/02/07 01:33:12;;;;;;;16.25;6.82;;;;;;;4.52;100.00;99725.50;10102481;28;20138;-73
2024/02/07 01:38:12;;;;;;;16.05;7.93;;;;;;;4.54;100.00;99719.78;10110305;28;20046;-77
2024/02/07 01:43:09;;;;;;;15.95;7.47;;;;;;;4.51;100.00;99720.41;10101966;28;20135;-73
2024/02/07 01:48:07;;;;;;;18.02;7.80;;;;;;;4.50;100.00;99732.31;10099506;28;20049;-73
2024/02/07 01:53:07;;;;;;;12.35;7.30;;;;;;;4.53;100.00;99726.31;10105834;28;20129;-73
2024/02/07 01:58:04;;;;;;;18.45;8.25;;;;;;;4.50;100.00;99726.91;10107816;28;20055;-75
2024/02/07 02:03:01;;;;;;;16.98;8.07;;;;;;;4.50;100.00;99710.66;10109774;28;20097;-76
2024/02/07 02:07:59;;;;;;;11.60;7.93;;;;;;;4.48;100.00;99719.09;10097730;28;20046;-76
2024/02/07 02:12:55;;;;;;;14.25;8.00;;;;;;;4.50;100.00;99714.16;10100768;28;20467;-76
2024/02/07 02:17:53;;;;;;;15.77;7.65;;;;;;;4.48;100.00;99718.28;10101112;28;20046;-75
2024/02/07 02:23:27;;;;;;;25.67;8.55;;;;;;;4.49;100.00;99714.50;10114447;28;20106;-75
2024/02/07 02:28:32;;;;;;;15.98;7.20;;;;;;;4.46;100.00;99709.69;10121285;28;20047;-76
2024/02/07 02:33:33;;;;;;;15.85;7.50;;;;;;;4.42;100.00;99704.84;10111062;28;20623;-73
2024/02/07 02:38:35;;;;;;;21.52;8.80;;;;;;;4.45;100.00;99710.78;10111230;28;20442;-74
2024/02/07 02:43:32;;;;;;;13.67;6.90;;;;;;;4.45;100.00;99710.78;10104680;28;20047;-73
2024/02/07 02:48:29;;;;;;;13.68;7.70;;;;;;;4.35;100.00;99707.16;10100052;28;20432;-74
2024/02/07 02:53:26;;;;;;;14.50;7.80;;;;;;;4.35;100.00;99709.88;10105844;28;20054;-75
2024/02/07 02:58:29;;;;;;;23.45;8.45;;;;;;;4.49;100.00;99719.91;10109872;28;20143;-75
2024/02/07 03:03:30;;;;;;;10.93;7.13;;;;;;;4.50;100.00;99713.38;10101263;28;20042;-73
2024/02/07 03:08:42;;;;;;;16.98;7.63;;;;;;;4.47;100.00;99711.28;10103519;28;20043;-76
2024/02/07 03:13:39;;;;;;;17.73;9.37;;;;;;;4.52;100.00;99713.88;10107802;28;20701;-77
2024/02/07 03:18:36;;;;;;;18.13;7.45;;;;;;;4.54;100.00;99727.91;10107142;28;20522;-75
2024/02/07 03:23:33;;;;;;;16.10;7.28;;;;;;;4.52;100.00;99730.13;10108395;28;20066;-75
2024/02/07 03:28:31;;;;;;;12.00;6.70;;;;;;;4.46;100.00;99721.31;10100381;28;20057;-75
2024/02/07 03:33:28;;;;;;;21.45;7.13;;;;;;;4.50;100.00;99743.16;10101488;28;20046;-74
2024/02/07 03:38:25;;;;;;;24.15;6.60;;;;;;;4.54;100.00;99755.00;10113736;28;20054;-74
2024/02/07 03:43:23;;;;;;;17.38;7.93;;;;;;;4.52;100.00;99778.84;10106888;28;20067;-75
2024/02/07 03:48:23;;;;;;;23.98;7.57;;;;;;;4.52;100.00;99765.31;10103090;28;20105;-75
2024/02/07 03:53:20;;;;;;;18.48;7.18;;;;;;;4.49;100.00;99776.75;10102498;28;20415;-76
2024/02/07 03:58:19;;;;;;;22.67;7.88;;;;;;;4.40;100.00;99788.25;10106735;28;20055;-76
2024/02/07 04:03:18;;;;;;;22.13;9.23;;;;;;;4.39;100.00;99786.66;10112409;28;20043;-75
2024/02/07 04:08:14;;;;;;;17.83;7.55;;;;;;;4.38;100.00;99785.03;10113783;28;20407;-75
2024/02/07 05:15:56;;;;;;;11.98;9.20;;;;;;;3.66;100.00;99868.47;10098592;28;20043;-74
2024/02/07 05:20:52;;;;;;;16.38;9.65;;;;;;;3.64;100.00;99878.78;10097661;28;20050;-75
2024/02/07 05:25:50;;;;;;;25.77;10.18;;;;;;;3.64;100.00;99889.59;10099115;28;20061;-75
2024/02/07 05:30:46;;;;;;;19.90;8.82;;;;;;;3.64;100.00;99892.28;10101614;28;20039;-74
2024/02/07 05:35:43;;;;;;;19.90;10.25;;;;;;;3.63;100.00;99904.22;10091378;28;20042;-74
2024/02/07 05:40:39;;;;;;;13.95;8.75;;;;;;;3.60;100.00;99916.41;10092541;28;20051;-74
2024/02/07 05:45:36;;;;;;;25.15;9.88;;;;;;;3.63;100.00;99920.44;10093691;28;20097;-74
2024/02/07 05:50:35;;;;;;;19.60;10.15;;;;;;;3.62;100.00;99938.56;10101088;28;20050;-74
2024/02/07 05:55:31;;;;;;;16.50;8.15;;;;;;;3.52;100.00;99947.56;10111284;28;20054;-74
2024/02/07 06:00:28;;;;;;;21.38;8.40;;;;;;;3.50;100.00;99948.97;10095643;28;20558;-73
2024/02/07 06:05:27;;;;;;;20.63;10.45;;;;;;;3.46;100.00;99964.97;10106652;28;20046;-73
2024/02/07 06:10:24;;;;;;;18.77;7.80;;;;;;;3.42;100.00;99966.63;10106979;28;20049;-73
2024/02/07 06:15:20;;;;;;;15.32;9.07;;;;;;;3.33;100.00;99976.47;10108866;28;20495;-73
2024/02/07 06:20:17;;;;;;;13.73;7.47;;;;;;;3.32;100.00;99966.75;10112498;28;20046;-73
2024/02/07 06:25:14;;;;;;;21.50;6.80;;;;;;;3.32;100.00;99985.69;10100046;28;20042;-73
2024/02/07 06:30:11;;;;;;;13.75;6.95;;;;;;;3.31;100.00;99978.66;10112009;28;20066;-73
2024/02/07 06:35:08;;;;;;;15.50;7.32;;;;;;;3.25;100.00;99991.41;10116520;28;20499;-72
2024/02/07 06:40:06;;;;;;;9.55;7.57;;;;;;;3.26;100.00;99995.72;10107039;28;20051;-73
2024/02/07 06:45:03;;;;;;;14.35;7.20;;;;;;;3.24;100.00;99999.78;10104140;28;20051;-72
2024/02/07 06:50:00;;;;;;;16.50;7.03;;;;;;;3.26;100.00;100027.34;10110346;28;20084;-73
2024/02/07 06:54:56;;;;;;;13.70;7.13;;;;;;;3.22;100.00;100018.19;10097987;28;20051;-73
2024/02/07 06:59:53;;;;;;;15.63;7.10;;;;;;;3.16;100.00;100026.34;10109684;28;20566;-73
2024/02/07 07:04:49;;;;;;;17.98;8.30;;;;;;;3.08;100.00;100045.84;10101593;28;20050;-72
2024/02/07 07:09:46;;;;;;;13.55;7.25;;;;;;;3.08;100.00;100045.84;10115942;28;20039;-73
2024/02/07 07:14:43;;;;;;;11.82;7.18;;;;;;;3.02;100.00;100057.81;10101720;28;20507;-71
2024/02/07 07:19:40;;;;;;;18.83;7.28;;;;;;;3.03;100.00;100054.00;10119257;28;20050;-73
2024/02/07 07:24:37;;;;;;;14.85;6.93;;;;;;;3.02;100.00;100063.22;10114454;28;20061;-73
2024/02/07 07:29:33;;;;;;;13.75;7.00;;;;;;;3.00;100.00;100070.78;10102788;28;20058;-74
2024/02/07 07:34:30;;;;;;;13.98;7.50;;;;;;;2.94;100.00;100078.13;10103770;28;20094;-73
2024/02/07 07:39:26;;;;;;;12.07;6.55;;;;;;;2.94;100.00;100088.13;10107157;28;20043;-74
2024/02/07 07:44:23;;;;;;;7.10;6.38;;;;;;;2.94;100.00;100090.81;10106167;28;20042;-73
2024/02/07 07:49:19;;;;;;;12.10;7.00;;;;;;;2.98;100.00;100121.56;10113042;28;20065;-73
2024/02/07 07:54:16;;;;;;;15.40;7.25;;;;;;;3.01;100.00;100128.31;10110254;28;20047;-73
2024/02/07 07:59:13;;;;;;;14.57;6.70;;;;;;;3.01;100.00;100129.09;10103728;28;20074;-73
2024/02/07 08:04:10;;;;;;;16.83;8.18;;;;;;;3.04;100.00;100152.88;10105879;28;20059;-74
2024/02/07 08:09:06;;;;;;;15.63;7.38;;;;;;;3.03;100.00;100162.03;10105393;28;20105;-73
2024/02/07 08:14:03;;;;;;;14.75;6.28;;;;;;;3.08;100.00;100170.09;10113269;28;20042;-73
2024/02/07 08:19:00;;;;;;;14.73;6.40;;;;;;;3.06;100.00;100188.50;10098783;28;20062;-73
2024/02/07 08:23:56;;;;;;;13.95;6.68;;;;;;;3.13;100.00;100180.91;10097637;28;20043;-73
2024/02/07 08:28:53;;;;;;;12.88;5.82;;;;;;;3.19;100.00;100175.47;10113346;28;20826;-74
2024/02/07 08:33:49;;;;;;;12.60;7.15;;;;;;;3.17;100.00;100184.63;10107182;28;20047;-73
2024/02/07 08:38:46;;;;;;;14.30;6.13;;;;;;;3.22;100.00;100196.50;10112048;28;20058;-73
2024/02/07 08:43:43;;;;;;;11.65;7.50;;;;;;;3.28;100.00;100189.97;10097754;28;20043;-73
2024/02/07 08:48:39;;;;;;;15.27;5.95;;;;;;;3.34;100.00;100205.88;10107977;28;20121;-73
2024/02/07 08:53:36;;;;;;;14.00;6.07;;;;;;;3.40;100.00;100205.81;10114861;28;20061;-73
2024/02/07 08:58:32;;;;;;;14.65;5.35;;;;;;;3.45;100.00;100208.47;10109672;28;20054;-73
2024/02/07 09:03:32;;;;;;;17.58;6.10;;;;;;;3.63;100.00;100210.50;10102492;28;20050;-73
2024/02/07 09:08:28;;;;;;;13.95;4.97;;;;;;;3.68;100.00;100231.28;10104713;28;20522;-74
2024/02/07 09:13:25;;;;;;;15.65;6.57;;;;;;;3.69;100.00;100230.16;10109224;28;20047;-74
2024/02/07 09:18:22;;;;;;;14.38;6.38;;;;;;;3.69;100.00;100222.06;10103767;28;20109;-73
2024/02/07 09:23:18;;;;;;;11.00;6.18;;;;;;;3.55;100.00;100230.84;10107194;28;20058;-73
2024/02/07 09:28:15;;;;;;;19.20;5.85;;;;;;;3.52;100.00;100244.91;10100939;28;20046;-73
2024/02/07 09:33:11;;;;;;;21.88;6.38;;;;;;;3.51;100.00;100256.81;10110564;28;20725;-73
2024/02/07 09:38:08;;;;;;;15.48;5.50;;;;;;;3.67;100.00;100251.31;10105524;28;20125;-73
2024/02/07 09:43:05;;;;;;;11.98;5.57;;;;;;;3.81;100.00;100263.06;10113793;28;20049;-74
2024/02/07 09:48:19;;;;;;;19.33;6.65;;;;;;;3.91;100.00;100273.78;10110432;28;20063;-74
2024/02/07 09:53:19;;;;;;;17.20;5.85;;;;;;;3.94;100.00;100261.59;10105917;28;20057;-73
2024/02/07 09:58:16;;;;;;;15.02;6.15;;;;;;;4.11;100.00;100267.41;10106978;28;20632;-73
2024/02/07 10:03:14;;;;;;;9.93;5.80;;;;;;;4.20;100.00;100272.97;10095576;28;20047;-73
2024/02/07 10:08:11;;;;;;;16.30;6.28;;;;;;;4.02;100.00;100284.53;10097322;28;20047;-73
2024/02/07 10:13:08;;;;;;;15.52;5.50;;;;;;;4.09;100.00;100280.41;10104393;28;20075;-74
2024/02/07 10:18:04;;;;;;;16.33;5.60;;;;;;;4.14;100.00;100303.91;10108257;28;20069;-75
2024/02/07 10:23:05;;;;;;;15.88;6.40;;;;;;;4.23;100.00;100296.78;10100521;28;20049;-73
2024/02/07 10:28:06;;;;;;;12.65;5.80;;;;;;;4.29;100.00;100303.75;10111990;28;20042;-72
2024/02/07 10:33:03;;;;;;;15.10;5.75;;;;;;;4.39;100.00;100317.19;10098326;28;20051;-73
2024/02/07 10:38:00;;;;;;;9.88;5.68;;;;;;;4.26;100.00;100307.03;10105571;28;20430;-74
2024/02/07 10:42:57;;;;;;;12.45;4.93;;;;;;;4.43;100.00;100310.13;10104060;28;20049;-74
2024/02/07 10:47:54;;;;;;;12.43;4.80;;;;;;;4.59;100.00;100310.72;10110301;28;20042;-74
2024/02/07 10:52:50;;;;;;;11.45;4.90;;;;;;;4.85;100.00;100313.97;10113003;28;20042;-73
2024/02/07 10:57:54;;;;;;;13.13;5.00;;;;;;;4.91;100.00;100313.91;10103679;28;20053;-74
2024/02/07 11:02:52;;;;;;;12.77;4.70;;;;;;;4.82;100.00;100302.91;10114757;28;20047;-73
2024/02/07 11:07:49;;;;;;;13.00;4.68;;;;;;;4.65;100.00;100306.09;10101675;28;20051;-74
2024/02/07 11:12:48;;;;;;;13.23;5.72;;;;;;;4.61;100.00;100308.56;10103694;28;20043;-73
2024/02/07 11:17:45;;;;;;;11.35;4.93;;;;;;;4.81;100.00;100302.09;10110683;28;20101;-73
2024/02/07 11:22:46;;;;;;;7.03;4.35;;;;;;;4.95;100.00;100306.81;10108187;28;20047;-73
2024/02/07 11:27:42;;;;;;;12.50;5.38;;;;;;;4.89;100.00;100318.81;10109397;28;20529;-73
2024/02/07 11:32:39;;;;;;;11.50;4.72;;;;;;;4.88;100.00;100319.91;10114519;28;20054;-73
2024/02/07 11:37:37;;;;;;;10.23;4.65;;;;;;;5.15;100.00;100308.44;10106636;28;20046;-74
2024/02/07 11:42:40;;;;;;;17.15;5.10;;;;;;;4.86;100.00;100336.44;10112241;28;20112;-74
2024/02/07 11:47:42;;;;;;;12.68;5.70;;;;;;;5.02;100.00;100331.66;10099660;28;20055;-71
2024/02/07 11:52:40;;;;;;;13.60;5.77;;;;;;;5.23;100.00;100324.88;10109281;28;20066;-72
2024/02/07 11:57:41;;;;;;;13.57;6.00;;;;;;;5.34;100.00;100322.00;10106811;28;20125;-71
2024/02/07 12:02:38;;;;;;;15.63;5.50;;;;;;;5.45;100.00;100328.91;10113469;28;20046;-71
2024/02/07 12:07:40;;;;;;;12.43;5.05;;;;;;;5.20;100.00;100322.75;10098037;28;20038;-72
2024/02/07 12:12:37;;;;;;;12.18;6.03;;;;;;;5.07;100.00;100337.00;10103073;28;20133;-71
2024/02/07 12:17:34;;;;;;;12.32;4.72;;;;;;;4.91;100.00;100338.28;10109314;28;20508;-71
2024/02/07 12:22:33;;;;;;;13.73;4.57;;;;;;;5.05;100.00;100339.19;10106791;28;20077;-72
2024/02/07 12:27:30;;;;;;;12.95;5.28;;;;;;;5.15;100.00;100349.09;10099599;28;20410;-72
2024/02/07 12:32:26;;;;;;;11.68;4.57;;;;;;;5.15;100.00;100349.94;10104111;28;20047;-72
2024/02/07 12:37:23;;;;;;;14.00;4.85;;;;;;;4.84;100.00;100357.59;10104298;28;20469;-73
2024/02/07 12:42:21;;;;;;;5.40;4.43;;;;;;;4.89;100.00;100357.53;10110175;28;20045;-71
2024/02/07 12:47:21;;;;;;;12.73;5.03;;;;;;;4.91;100.00;100362.69;10105812;28;20039;-71
2024/02/07 12:52:19;;;;;;;9.52;4.72;;;;;;;4.84;100.00;100355.69;10103757;28;20167;-72
2024/02/07 12:57:24;;;;;;;13.40;6.35;;;;;;;5.11;100.00;100367.88;10098400;28;20050;-71
2024/02/07 13:02:21;;;;;;;6.40;4.50;;;;;;;5.12;100.00;100361.34;10105783;28;20691;-71
2024/02/07 13:07:18;;;;;;;8.80;4.82;;;;;;;5.15;100.00;100360.78;10094683;28;20051;-71
2024/02/07 13:12:15;;;;;;;7.97;4.63;;;;;;;4.88;100.00;100366.78;10083206;28;20097;-71
2024/02/07 13:17:25;;;;;;;6.88;4.18;;;;;;;4.93;100.00;100374.03;10110706;28;20058;-71
2024/02/07 13:22:22;;;;;;;8.52;4.38;;;;;;;5.05;100.00;100367.09;10102075;28;20137;-71
2024/02/07 13:27:19;;;;;;;8.90;5.00;;;;;;;4.76;100.00;100391.56;10100643;28;20073;-71
2024/02/07 13:32:21;;;;;;;7.68;4.80;;;;;;;4.19;100.00;100387.72;10100148;28;20061;-71
2024/02/07 13:37:18;;;;;;;10.63;5.20;;;;;;;4.39;100.00;100390.28;10111182;28;20113;-71
2024/02/07 13:42:15;;;;;;;12.45;6.43;;;;;;;4.57;100.00;100387.94;10096811;28;20054;-71
2024/02/07 13:47:13;;;;;;;9.85;4.75;;;;;;;4.78;100.00;100383.94;10101672;28;20062;-72
2024/02/07 13:52:10;;;;;;;12.40;6.10;;;;;;;5.00;100.00;100390.75;10107020;28;20054;-71
2024/02/07 13:57:07;;;;;;;10.82;4.30;;;;;;;4.85;100.00;100383.63;10097324;28;20419;-71
2024/02/07 14:02:03;;;;;;;20.13;5.28;;;;;;;4.63;100.00;100387.59;10110183;28;20053;-70
2024/02/07 14:07:00;;;;;;;13.07;4.60;;;;;;;4.85;100.00;100389.03;10097475;28;20053;-70
2024/02/07 14:11:56;;;;;;;11.15;4.45;;;;;;;5.07;100.00;100388.50;10096765;28;20049;-71
2024/02/07 14:16:53;;;;;;;9.13;4.35;;;;;;;4.78;100.00;100394.78;10109545;28;20053;-71
2024/02/07 14:21:49;;;;;;;9.25;4.32;;;;;;;4.83;100.00;100391.22;10115485;28;20046;-71
2024/02/07 14:26:46;;;;;;;8.93;5.55;;;;;;;4.77;100.00;100393.16;10096856;28;20046;-71
2024/02/07 14:31:43;;;;;;;12.30;5.03;;;;;;;4.69;100.00;100393.78;10111024;28;20069;-71
2024/02/07 14:36:40;;;;;;;8.43;4.65;;;;;;;4.98;100.00;100392.94;10102901;28;20125;-71
2024/02/07 14:41:36;;;;;;;8.25;4.65;;;;;;;4.81;100.00;100405.03;10106340;28;20047;-72
2024/02/07 14:46:33;;;;;;;8.82;4.22;;;;;;;4.47;100.00;100396.97;10115365;28;20062;-71
2024/02/07 14:51:29;;;;;;;8.85;4.88;;;;;;;4.37;100.00;100397.88;10112957;28;20078;-71
2024/02/07 14:56:26;;;;;;;6.50;4.10;;;;;;;4.09;100.00;100404.06;10110688;28;20121;-72
2024/02/07 15:01:24;;;;;;;14.35;4.43;;;;;;;4.32;100.00;100399.81;10112508;28;20062;-72
2024/02/07 15:06:21;;;;;;;11.30;5.70;;;;;;;4.54;100.00;100404.75;10113642;28;20054;-71
2024/02/07 15:11:18;;;;;;;7.93;4.93;;;;;;;4.30;100.00;100399.28;10112505;28;20051;-72
2024/02/07 15:16:14;;;;;;;11.77;4.35;;;;;;;4.04;100.00;100406.78;10106362;28;20101;-71
2024/02/07 15:21:11;;;;;;;9.13;4.38;;;;;;;3.94;100.00;100402.25;10109047;28;20538;-73
2024/02/07 15:26:07;;;;;;;7.03;5.13;;;;;;;3.76;100.00;100407.25;10093804;28;20062;-72
2024/02/07 15:31:04;;;;;;;13.45;4.53;;;;;;;3.58;100.00;100407.88;10111342;28;20078;-71
2024/02/07 15:36:01;;;;;;;9.57;4.35;;;;;;;3.51;100.00;100407.38;10109930;28;20114;-71
2024/02/07 15:40:57;;;;;;;7.15;4.18;;;;;;;3.46;100.00;100408.22;10112814;28;20129;-71
2024/02/07 15:45:55;;;;;;;8.93;4.35;;;;;;;3.31;100.00;100411.78;10100818;28;20043;-71
2024/02/07 15:50:52;;;;;;;11.48;5.13;;;;;;;3.27;100.00;100415.31;10108191;28;20089;-72
2024/02/07 15:55:49;;;;;;;14.65;4.50;;;;;;;3.24;100.00;100410.47;10111805;28;20054;-73
2024/02/07 16:00:46;;;;;;;10.27;4.47;;;;;;;3.16;100.00;100415.38;10118178;28;20553;-72
2024/02/07 16:05:42;;;;;;;11.18;4.63;;;;;;;3.06;100.00;100415.38;10105894;28;20043;-71
2024/02/07 16:10:41;;;;;;;12.50;5.20;;;;;;;2.99;100.00;100425.66;10102751;28;20049;-71
2024/02/07 16:15:38;;;;;;;12.25;5.47;;;;;;;2.87;100.00;100430.56;10096125;28;20112;-71
2024/02/07 16:20:35;;;;;;;13.13;5.00;;;;;;;2.87;100.00;100423.25;10100563;28;20101;-71
2024/02/07 16:25:31;;;;;;;5.35;4.72;;;;;;;2.80;100.00;100428.16;10090777;28;20121;-72
2024/02/07 16:30:28;;;;;;;13.35;5.30;;;;;;;2.80;100.00;100438.16;10100593;28;20050;-72
2024/02/07 16:35:28;;;;;;;11.50;5.38;;;;;;;2.69;100.00;100440.88;10089525;28;20046;-73
2024/02/07 16:40:27;;;;;;;10.35;5.50;;;;;;;2.66;100.00;100449.50;10097168;28;20047;-73
2024/02/07 16:45:23;;;;;;;16.13;6.15;;;;;;;2.65;100.00;100463.28;10094615;28;20058;-72
2024/02/07 16:50:20;;;;;;;13.40;6.20;;;;;;;2.58;100.00;100463.56;10106916;28;20101;-73
2024/02/07 16:55:20;;;;;;;10.18;6.32;;;;;;;2.60;100.00;100471.34;10104006;28;20047;-73
2024/02/07 17:00:17;;;;;;;17.95;7.20;;;;;;;2.51;100.00;100468.41;10100100;28;20121;-72
2024/02/07 17:05:13;;;;;;;14.25;6.82;;;;;;;2.50;100.00;100464.06;10110723;28;20043;-71
2024/02/07 17:10:10;;;;;;;11.40;7.63;;;;;;;2.40;100.00;100459.50;10096482;28;20427;-72
2024/02/07 17:15:07;;;;;;;17.38;7.60;;;;;;;2.42;100.00;100464.63;10107474;28;20053;-72
2024/02/07 17:20:04;;;;;;;8.10;7.30;;;;;;;2.42;100.00;100470.84;10095578;28;20059;-72
2024/02/07 17:25:01;;;;;;;9.27;7.60;;;;;;;2.38;100.00;100466.25;10094866;28;20496;-72
2024/02/07 17:29:57;;;;;;;19.45;8.82;;;;;;;2.34;100.00;100457.06;10099919;28;20057;-73
2024/02/07 17:35:03;;;;;;;16.85;8.25;;;;;;;2.33;100.00;100463.53;10094213;28;20058;-72
2024/02/07 17:39:59;;;;;;;12.80;7.93;;;;;;;2.29;100.00;100455.97;10107141;28;20078;-72
2024/02/07 17:44:56;;;;;;;9.48;8.00;;;;;;;2.33;100.00;100460.84;10091346;28;20068;-73
2024/02/07 17:49:53;;;;;;;11.80;7.95;;;;;;;2.23;100.00;100467.06;10099655;28;20043;-74
2024/02/07 17:54:50;;;;;;;21.73;9.52;;;;;;;2.14;100.00;100469.47;10089814;28;20043;-73
2024/02/07 17:59:47;;;;;;;10.70;8.60;;;;;;;2.18;100.00;100459.75;10100210;28;20077;-74
2024/02/07 18:04:43;;;;;;;17.85;8.40;;;;;;;2.15;100.00;100462.97;10077029;28;20053;-72
2024/02/07 18:09:41;;;;;;;11.95;7.80;;;;;;;2.04;100.00;100459.47;10100445;28;20075;-72
2024/02/07 18:14:37;;;;;;;17.55;8.80;;;;;;;2.09;100.00;100470.25;10099659;28;20478;-72
2024/02/07 18:19:34;;;;;;;18.73;9.30;;;;;;;2.06;100.00;100462.69;10097407;28;20071;-72
2024/02/07 18:24:30;;;;;;;14.85;9.30;;;;;;;2.01;100.00;100449.19;10093782;28;20039;-72
2024/02/07 18:29:30;;;;;;;14.80;9.85;;;;;;;1.79;100.00;100454.81;10092140;28;20780;-72
2024/02/07 18:34:27;;;;;;;21.10;10.60;;;;;;;1.87;100.00;100454.28;10111610;28;20097;-73
2024/02/07 18:39:25;;;;;;;11.18;10.05;;;;;;;1.88;100.00;100460.50;10089340;28;20051;-73
2024/02/07 18:44:22;;;;;;;20.23;11.23;;;;;;;1.86;100.00;100460.78;10093667;28;20043;-72
2024/02/07 18:49:18;;;;;;;16.75;11.00;;;;;;;1.89;100.00;100451.34;10094148;28;20046;-74
2024/02/07 18:54:15;;;;;;;21.00;10.95;;;;;;;1.89;100.00;100451.34;10098357;28;20055;-74
2024/02/07 18:59:13;;;;;;;18.20;10.27;;;;;;;1.91;100.00;100456.47;10106054;28;20043;-73
2024/02/07 19:04:10;;;;;;;14.43;10.00;;;;;;;1.87;100.00;100450.78;10109205;28;20047;-73
2024/02/07 19:09:06;;;;;;;14.75;9.38;;;;;;;1.81;100.00;100452.69;10110458;28;20093;-73
2024/02/07 19:14:03;;;;;;;15.45;10.27;;;;;;;1.75;100.00;100451.03;10108209;28;20117;-72
2024/02/07 19:19:02;;;;;;;14.50;10.32;;;;;;;1.76;100.00;100447.25;10113283;28;20116;-72
2024/02/07 19:23:58;;;;;;;16.08;10.20;;;;;;;1.72;100.00;100443.50;10100629;28;20042;-72
2024/02/07 19:28:55;;;;;;;16.70;10.65;;;;;;;1.69;100.00;100449.38;10109299;28;20050;-72
2024/02/07 19:33:51;;;;;;;18.67;10.75;;;;;;;1.64;100.00;100452.06;10098630;28;20570;-72
2024/02/07 19:38:48;;;;;;;19.88;10.57;;;;;;;1.62;100.00;100451.53;10094746;28;20700;-73
2024/02/07 19:43:45;;;;;;;15.05;11.43;;;;;;;1.56;100.00;100444.53;10106098;28;20051;-73
2024/02/07 19:48:41;;;;;;;13.98;10.65;;;;;;;1.38;100.00;100446.59;10102002;28;20470;-72
2024/02/07 19:53:38;;;;;;;24.05;10.98;;;;;;;1.31;100.00;100440.63;10104830;28;20043;-72
2024/02/07 19:58:34;;;;;;;14.18;11.15;;;;;;;1.29;100.00;100441.97;10107088;28;20054;-73
2024/02/07 20:03:31;;;;;;;17.63;11.32;;;;;;;1.19;100.00;100437.34;10106829;28;20415;-72
2024/02/07 20:08:27;;;;;;;16.25;10.07;;;;;;;1.16;100.00;100437.88;10102293;28;20053;-72
2024/02/07 20:13:24;;;;;;;18.00;10.70;;;;;;;1.20;100.00;100437.06;10107039;28;20046;-71
2024/02/07 20:18:20;;;;;;;13.25;10.75;;;;;;;1.10;100.00;100438.94;10107664;28;20047;-72
2024/02/07 20:23:17;;;;;;;13.20;10.50;;;;;;;1.09;100.00;100426.50;10104067;28;20134;-73
2024/02/07 20:28:21;;;;;;;17.48;10.60;;;;;;;0.89;100.00;100427.22;10107237;28;20043;-72
2024/02/07 20:33:19;;;;;;;13.27;10.48;;;;;;;0.72;100.00;100422.84;10109402;28;20133;-72
2024/02/07 20:38:16;;;;;;;12.32;10.93;;;;;;;0.57;100.00;100415.44;10103713;28;20745;-72
2024/02/07 20:43:12;;;;;;;16.40;11.25;;;;;;;0.46;100.00;100427.19;10104577;28;20540;-71
2024/02/07 20:48:09;;;;;;;19.50;11.70;;;;;;;0.35;100.00;100429.03;10123130;28;20458;-72
2024/02/07 20:53:07;;;;;;;13.27;11.90;;;;;;;0.24;100.00;100423.81;10098330;28;20054;-73
2024/02/07 20:58:04;;;;;;;19.38;12.80;;;;;;;0.14;100.00;100419.97;10099331;28;20141;-71
2024/02/07 21:03:04;;;;;;;23.80;11.77;;;;;;;0.09;100.00;100411.84;10101708;28;20042;-71
2024/02/07 21:08:01;;;;;;;14.75;11.52;;;;;;;0.03;100.00;100399.44;10092793;28;20098;-71
2024/02/07 21:12:58;;;;;;;17.15;11.98;;;;;;;-0.02;100.00;100385.97;10099974;28;20110;-70
2024/02/07 21:17:54;;;;;;;18.58;11.60;;;;;;;0.00;100.00;100389.19;10091004;28;20050;-73
2024/02/07 21:22:51;;;;;;;19.38;12.05;;;;;;;0.01;100.00;100388.13;10097850;28;20139;-71
2024/02/07 21:27:48;;;;;;;15.20;11.75;;;;;;;0.00;100.00;100394.59;10095073;28;20042;-73
2024/02/07 21:32:44;;;;;;;14.35;11.38;;;;;;;0.02;100.00;100386.25;10098588;28;20134;-71
2024/02/07 21:37:41;;;;;;;20.90;11.93;;;;;;;-0.04;100.00;100382.72;10101738;28;20046;-71
2024/02/07 21:42:38;;;;;;;18.98;12.18;;;;;;;-0.03;100.00;100376.25;10104130;28;20145;-71
2024/02/07 21:47:35;;;;;;;17.35;12.52;;;;;;;-0.02;100.00;100369.84;10092138;28;20044;-71
2024/02/07 21:52:32;;;;;;;16.98;12.18;;;;;;;0.01;100.00;100363.13;10127000;28;20082;-72
2024/02/07 21:57:29;;;;;;;22.17;12.18;;;;;;;0.07;100.00;100367.47;10102316;28;20049;-73
2024/02/07 22:02:25;;;;;;;21.98;11.82;;;;;;;0.05;100.00;100359.69;10110178;28;20067;-73
2024/02/07 22:07:22;;;;;;;19.42;12.25;;;;;;;0.08;100.00;100351.09;10095254;28;20055;-72
2024/02/07 22:12:23;;;;;;;15.32;12.68;;;;;;;0.07;100.00;100354.84;10094347;28;20074;-71
2024/02/07 22:17:20;;;;;;;16.15;10.80;;;;;;;0.01;100.00;100358.56;10103914;28;20047;-72
2024/02/07 22:22:18;;;;;;;25.33;11.40;;;;;;;0.00;100.00;100340.81;10112640;28;20078;-72
2024/02/07 22:27:15;;;;;;;19.38;10.88;;;;;;;-0.09;100.00;100336.97;10102737;28;20044;-73
2024/02/07 22:32:13;;;;;;;12.80;10.57;;;;;;;-0.10;100.00;100338.03;10110357;28;20077;-74
2024/02/07 22:37:13;;;;;;;17.15;11.95;;;;;;;-0.12;100.00;100337.47;10108214;28;20054;-74
2024/02/07 22:42:10;;;;;;;17.13;12.00;;;;;;;-0.17;100.00;100334.75;10117752;28;20098;-73
2024/02/07 22:47:08;;;;;;;15.45;11.70;;;;;;;-0.20;100.00;100340.66;10112553;28;21186;-73
2024/02/07 22:52:05;;;;;;;20.33;12.70;;;;;;;-0.30;100.00;100326.06;10115753;28;20047;-74
2024/02/07 22:57:02;;;;;;;22.13;12.07;;;;;;;-0.32;100.00;100327.38;10118149;28;20052;-72
2024/02/07 23:01:59;;;;;;;15.15;11.00;;;;;;;-0.35;100.00;100325.97;10101228;28;20134;-73
2024/02/07 23:06:55;;;;;;;16.35;11.35;;;;;;;-0.39;100.00;100321.41;10115425;28;20070;-72
2024/02/07 23:11:52;;;;;;;18.10;12.10;;;;;;;-0.31;100.00;100324.41;10103181;28;20142;-74
2024/02/07 23:16:49;;;;;;;17.08;10.98;;;;;;;-0.18;100.00;100322.41;10110518;28;20156;-72
2024/02/07 23:21:46;;;;;;;21.08;11.43;;;;;;;-0.12;100.00;100327.53;10113602;28;20053;-71
2024/02/07 23:26:46;;;;;;;13.07;10.75;;;;;;;0.01;100.00;100326.31;10112015;28;20418;-74
2024/02/07 23:31:42;;;;;;;21.77;11.30;;;;;;;0.18;100.00;100332.31;10116521;28;21453;-74
2024/02/07 23:36:39;;;;;;;20.27;10.07;;;;;;;0.40;100.00;100328.72;10109653;28;20578;-74